createdAt,value
2018-05-04T00:02:15.503Z,3.37
2018-05-04T00:04:44.574Z,3.50
2018-05-04T00:07:12.872Z,3.30
2018-05-04T00:09:41.127Z,3.50
2018-05-04T00:12:09.401Z,3.50
2018-05-04T00:14:37.933Z,3.30
2018-05-04T00:17:06.218Z,2.97
2018-05-04T00:19:34.482Z,3.17
2018-05-04T00:22:02.766Z,3.40
2018-05-04T00:24:31.025Z,3.83
2018-05-04T00:26:59.318Z,3.30
2018-05-04T00:29:27.597Z,3.30
2018-05-04T00:31:55.873Z,3.47
2018-05-04T00:34:24.163Z,3.60
2018-05-04T00:36:52.408Z,2.93
2018-05-04T00:39:20.747Z,3.67
2018-05-04T00:41:49.054Z,3.20
2018-05-04T00:44:17.338Z,3.50
2018-05-04T00:46:45.602Z,3.23
2018-05-04T00:49:13.884Z,3.90
2018-05-04T00:51:42.125Z,3.07
2018-05-04T00:54:22.289Z,3.70
2018-05-04T00:56:50.583Z,3.07
2018-05-04T00:59:18.862Z,3.50
2018-05-04T01:01:47.122Z,4.17
2018-05-04T01:04:15.390Z,3.70
2018-05-04T01:06:43.694Z,3.70
2018-05-04T01:09:11.983Z,3.77
2018-05-04T01:11:40.264Z,3.83
2018-05-04T01:14:08.555Z,4.17
2018-05-04T01:16:36.801Z,3.90
2018-05-04T01:19:05.126Z,3.90
2018-05-04T01:21:33.401Z,4.23
2018-05-04T01:24:01.745Z,4.00
2018-05-04T01:26:30.001Z,4.13
2018-05-04T01:28:58.304Z,3.77
2018-05-04T01:31:26.710Z,4.20
2018-05-04T01:33:54.970Z,4.20
2018-05-04T01:36:23.252Z,4.30
2018-05-04T01:38:51.522Z,4.30
2018-05-04T01:41:22.186Z,4.10
2018-05-04T01:43:51.176Z,4.13
2018-05-04T01:46:19.529Z,4.07
2018-05-04T01:48:47.921Z,4.47
2018-05-04T01:51:16.193Z,4.23
2018-05-04T01:53:44.434Z,3.63
2018-05-04T01:56:12.729Z,4.07
2018-05-04T01:58:40.990Z,3.83
2018-05-04T02:01:09.272Z,3.30
2018-05-04T02:03:37.531Z,3.90
2018-05-04T02:06:06.017Z,3.77
2018-05-04T02:08:34.294Z,4.30
2018-05-04T02:11:02.560Z,3.47
2018-05-04T02:13:30.852Z,4.00
2018-05-04T02:16:00.121Z,3.90
2018-05-04T02:18:28.439Z,4.00
2018-05-04T02:20:56.777Z,4.20
2018-05-04T02:23:25.067Z,3.97
2018-05-04T02:25:53.351Z,4.37
2018-05-04T02:28:21.706Z,4.10
2018-05-04T02:30:49.950Z,4.60
2018-05-04T02:33:18.255Z,3.90
2018-05-04T02:35:46.512Z,3.70
2018-05-04T02:38:14.794Z,4.10
2018-05-04T02:40:49.797Z,3.40
2018-05-04T02:43:18.096Z,4.10
2018-05-04T02:45:46.450Z,3.90
2018-05-04T02:48:14.757Z,3.70
2018-05-04T02:50:43.004Z,3.70
2018-05-04T02:53:11.319Z,3.60
2018-05-04T02:55:39.590Z,3.90
2018-05-04T02:58:07.939Z,3.70
2018-05-04T03:00:36.203Z,3.50
2018-05-04T03:03:04.825Z,3.90
2018-05-04T03:05:33.109Z,3.60
2018-05-04T03:08:01.586Z,4.00
2018-05-04T03:10:29.892Z,3.80
2018-05-04T03:12:58.151Z,4.00
2018-05-04T03:15:26.458Z,4.20
2018-05-04T03:17:54.802Z,3.60
2018-05-04T03:20:23.089Z,3.93
2018-05-04T03:22:51.363Z,5.00
2018-05-04T03:25:19.664Z,4.60
2018-05-04T03:27:47.918Z,4.20
2018-05-04T03:30:16.217Z,4.43
2018-05-04T03:32:44.484Z,4.90
2018-05-04T03:35:12.954Z,5.30
2018-05-04T03:37:41.218Z,4.30
2018-05-04T03:40:09.519Z,4.80
2018-05-04T03:42:37.908Z,4.30
2018-05-04T03:45:06.253Z,4.80
2018-05-04T03:47:34.518Z,4.30
2018-05-04T03:50:02.790Z,4.83
2018-05-04T03:52:31.119Z,4.03
2018-05-04T03:54:59.410Z,4.60
2018-05-04T03:57:39.546Z,4.40
2018-05-04T04:00:19.471Z,4.60
2018-05-04T04:03:16.168Z,4.30
2018-05-04T04:05:44.566Z,5.13
2018-05-04T04:08:12.843Z,5.03
2018-05-04T04:10:42.005Z,4.33
2018-05-04T04:13:10.338Z,5.23
2018-05-04T04:15:38.615Z,5.00
2018-05-04T04:18:06.972Z,4.90
2018-05-04T04:20:35.295Z,4.10
2018-05-04T04:23:03.588Z,4.70
2018-05-04T04:25:32.073Z,5.23
2018-05-04T04:28:00.384Z,6.10
2018-05-04T04:30:28.714Z,6.70
2018-05-04T04:32:57.111Z,5.13
2018-05-04T04:35:25.976Z,5.00
2018-05-04T04:37:54.488Z,4.77
2018-05-04T04:40:22.806Z,5.47
2018-05-04T04:42:52.466Z,5.03
2018-05-04T04:45:20.793Z,4.40
2018-05-04T04:47:49.107Z,5.17
2018-05-04T04:50:17.389Z,4.37
2018-05-04T04:52:45.778Z,5.60
2018-05-04T04:55:14.590Z,5.30
2018-05-04T04:57:42.859Z,6.00
2018-05-04T05:00:11.149Z,5.60
2018-05-04T05:02:39.446Z,6.90
2018-05-04T05:05:07.951Z,5.63
2018-05-04T05:07:36.274Z,5.10
2018-05-04T05:10:04.550Z,4.80
2018-05-04T05:12:32.811Z,4.83
2018-05-04T05:15:01.132Z,5.00
2018-05-04T05:17:29.386Z,5.93
2018-05-04T05:19:57.702Z,6.67
2018-05-04T05:22:27.160Z,6.07
2018-05-04T05:24:55.449Z,6.20
2018-05-04T05:27:23.774Z,6.10
2018-05-04T05:29:52.123Z,5.57
2018-05-04T05:32:20.464Z,6.23
2018-05-04T05:34:48.722Z,5.70
2018-05-04T05:37:17.096Z,7.10
2018-05-04T05:39:45.377Z,5.93
2018-05-04T05:42:13.683Z,5.60
2018-05-04T05:44:41.984Z,6.00
2018-05-04T05:47:19.849Z,5.80
2018-05-04T05:49:49.147Z,5.67
2018-05-04T05:52:17.417Z,6.83
2018-05-04T05:54:45.695Z,5.70
2018-05-04T05:57:14.030Z,6.03
2018-05-04T05:59:43.237Z,5.77
2018-05-04T06:02:11.550Z,6.37
2018-05-04T06:04:39.822Z,5.30
2018-05-04T06:07:08.205Z,5.03
2018-05-04T06:09:36.442Z,5.30
2018-05-04T06:12:04.852Z,5.07
2018-05-04T06:14:33.154Z,5.40
2018-05-04T06:17:01.437Z,5.10
2018-05-04T06:19:29.786Z,4.47
2018-05-04T06:21:58.086Z,4.20
2018-05-04T06:24:26.357Z,3.60
2018-05-04T06:26:54.746Z,3.53
2018-05-04T06:29:23.060Z,4.17
2018-05-04T06:31:51.545Z,3.73
2018-05-04T06:34:19.851Z,3.40
2018-05-04T06:36:49.057Z,4.30
2018-05-04T06:39:17.546Z,3.20
2018-05-04T06:41:45.820Z,2.80
2018-05-04T06:44:14.139Z,3.40
2018-05-04T06:46:42.932Z,2.47
2018-05-04T06:49:11.221Z,3.67
2018-05-04T06:51:39.716Z,3.10
2018-05-04T06:54:08.026Z,5.30
2018-05-04T06:56:36.395Z,3.37
2018-05-04T06:59:04.678Z,3.07
2018-05-04T07:01:33.890Z,3.57
2018-05-04T07:04:02.183Z,3.13
2018-05-04T07:06:30.537Z,2.47
2018-05-04T07:08:58.949Z,2.50
2018-05-04T07:11:27.257Z,5.77
2018-05-04T07:13:55.576Z,2.77
2018-05-04T07:16:23.944Z,3.20
2018-05-04T07:18:52.239Z,5.20
2018-05-04T07:21:20.626Z,3.47
2018-05-04T07:23:48.893Z,3.40
2018-05-04T07:26:17.188Z,3.07
2018-05-04T07:28:45.521Z,2.80
2018-05-04T07:31:13.730Z,2.83
2018-05-04T07:33:42.001Z,2.90
2018-05-04T07:36:10.290Z,3.37
2018-05-04T07:38:38.576Z,2.83
2018-05-04T07:41:07.034Z,4.07
2018-05-04T07:43:35.320Z,3.50
2018-05-04T07:46:03.615Z,2.97
2018-05-04T07:48:32.697Z,4.00
2018-05-04T07:51:01.649Z,3.43
2018-05-04T07:53:29.958Z,3.50
2018-05-04T07:55:59.162Z,9.10
2018-05-04T07:58:27.503Z,3.83
2018-05-04T08:00:56.030Z,3.43
2018-05-04T08:03:24.298Z,3.80
2018-05-04T08:05:52.584Z,3.30
2018-05-04T08:08:20.902Z,3.40
2018-05-04T08:10:50.074Z,3.43
2018-05-04T08:13:19.268Z,3.63
2018-05-04T08:15:47.556Z,4.97
2018-05-04T08:18:15.830Z,3.57
2018-05-04T08:20:44.177Z,4.07
2018-05-04T08:23:12.506Z,4.20
2018-05-04T08:25:40.748Z,3.13
2018-05-04T08:28:09.847Z,4.13
2018-05-04T08:30:38.201Z,3.77
2018-05-04T08:33:06.771Z,4.30
2018-05-04T08:35:35.070Z,6.33
2018-05-04T08:38:03.550Z,4.53
2018-05-04T08:40:31.869Z,5.17
2018-05-04T08:43:00.644Z,4.23
2018-05-04T08:45:29.094Z,4.60
2018-05-04T08:47:57.375Z,4.60
2018-05-04T08:50:25.817Z,4.40
2018-05-04T08:52:54.344Z,4.57
2018-05-04T08:55:22.617Z,4.53
2018-05-04T08:57:52.127Z,5.07
2018-05-04T09:00:20.401Z,4.73
2018-05-04T09:02:49.313Z,7.70
2018-05-04T09:05:18.711Z,7.00
2018-05-04T09:07:46.835Z,5.10
2018-05-04T09:10:15.154Z,5.13
2018-05-04T09:12:43.486Z,20.53
2018-05-04T09:15:11.911Z,5.80
2018-05-04T09:17:40.204Z,5.80
2018-05-04T09:20:08.531Z,6.03
2018-05-04T09:22:37.027Z,6.50
2018-05-04T09:25:05.490Z,6.47
2018-05-04T09:27:33.801Z,6.50
2018-05-04T09:30:02.768Z,5.80
2018-05-04T09:32:31.162Z,6.03
2018-05-04T09:34:59.571Z,6.10
2018-05-04T09:37:27.891Z,7.10
2018-05-04T09:39:56.387Z,8.37
2018-05-04T09:42:24.795Z,8.07
2018-05-04T09:44:54.644Z,7.77
2018-05-04T09:47:22.979Z,7.17
2018-05-04T09:49:51.360Z,7.00
2018-05-04T09:52:19.802Z,6.73
2018-05-04T09:54:48.134Z,7.10
2018-05-04T09:57:16.471Z,7.40
2018-05-04T09:59:44.870Z,6.97
2018-05-04T10:02:13.356Z,6.70
2018-05-04T10:04:41.609Z,6.47
2018-05-04T10:07:10.420Z,7.10
2018-05-04T10:09:38.840Z,7.57
2018-05-04T10:12:07.995Z,6.50
2018-05-04T10:14:36.267Z,6.80
2018-05-04T10:17:04.696Z,7.10
2018-05-04T10:19:32.946Z,6.40
2018-05-04T10:22:01.331Z,6.83
2018-05-04T10:24:29.607Z,6.70
2018-05-04T10:26:57.878Z,7.07
2018-05-04T10:29:26.721Z,7.23
2018-05-04T10:31:55.116Z,7.90
2018-05-04T10:34:23.427Z,8.00
2018-05-04T10:36:51.852Z,6.93
2018-05-04T10:39:20.176Z,10.27
2018-05-04T10:41:48.657Z,7.20
2018-05-04T10:44:17.044Z,8.00
2018-05-04T10:46:46.155Z,8.17
2018-05-04T10:49:14.463Z,6.90
2018-05-04T10:51:42.777Z,8.33
2018-05-04T10:54:11.110Z,7.97
2018-05-04T10:56:39.562Z,8.97
2018-05-04T10:59:07.982Z,8.53
2018-05-04T11:01:37.017Z,7.70
2018-05-04T11:04:05.551Z,7.53
2018-05-04T11:06:33.915Z,7.87
2018-05-04T11:09:02.794Z,8.93
2018-05-04T11:11:31.095Z,7.93
2018-05-04T11:13:59.398Z,7.57
2018-05-04T11:16:27.709Z,7.97
2018-05-04T11:18:55.981Z,8.70
2018-05-04T11:21:24.306Z,8.70
2018-05-04T11:23:52.584Z,8.23
2018-05-04T11:26:20.894Z,8.20
2018-05-04T11:28:49.167Z,7.03
2018-05-04T11:31:17.554Z,6.40
2018-05-04T11:33:45.827Z,9.00
2018-05-04T11:36:14.154Z,7.50
2018-05-04T11:38:42.430Z,8.70
2018-05-04T11:41:10.727Z,7.83
2018-05-04T11:43:38.997Z,6.70
2018-05-04T11:46:07.341Z,7.30
2018-05-04T11:48:35.609Z,7.20
2018-05-04T11:51:04.011Z,7.27
2018-05-04T11:53:32.340Z,7.87
2018-05-04T11:56:00.681Z,8.27
2018-05-04T11:58:29.554Z,7.90
2018-05-04T12:00:57.842Z,7.33
2018-05-04T12:03:26.116Z,7.50
2018-05-04T12:05:54.386Z,7.50
2018-05-04T12:08:22.750Z,8.13
2018-05-04T12:10:51.064Z,8.10
2018-05-04T12:13:19.370Z,6.67
2018-05-04T12:15:47.683Z,7.27
2018-05-04T12:18:15.998Z,7.07
2018-05-04T12:20:44.302Z,7.60
2018-05-04T12:23:12.702Z,7.30
2018-05-04T12:25:41.086Z,6.10
2018-05-04T12:28:09.374Z,7.33
2018-05-04T12:30:38.394Z,8.10
2018-05-04T12:33:06.702Z,6.60
2018-05-04T12:35:34.968Z,7.00
2018-05-04T12:38:03.317Z,6.90
2018-05-04T12:40:31.600Z,6.57
2018-05-04T12:42:59.978Z,10.07
2018-05-04T12:45:28.312Z,7.40
2018-05-04T12:47:56.688Z,6.60
2018-05-04T12:50:24.949Z,7.00
2018-05-04T12:52:53.294Z,7.33
2018-05-04T12:55:21.592Z,7.70
2018-05-04T12:57:50.479Z,6.27
2018-05-04T13:00:18.782Z,6.67
2018-05-04T13:02:47.176Z,7.43
2018-05-04T13:05:15.487Z,6.97
2018-05-04T13:07:43.751Z,7.00
2018-05-04T13:10:12.029Z,6.80
2018-05-04T13:12:40.326Z,6.77
2018-05-04T13:15:08.726Z,8.00
2018-05-04T13:17:36.983Z,6.70
2018-05-04T13:20:05.359Z,6.33
2018-05-04T13:22:33.594Z,7.23
2018-05-04T13:25:01.936Z,6.83
2018-05-04T13:27:30.178Z,6.73
2018-05-04T13:29:58.487Z,6.90
2018-05-04T13:32:26.742Z,6.40
2018-05-04T13:34:55.449Z,7.43
2018-05-04T13:37:23.694Z,7.30
2018-05-04T13:39:52.011Z,6.80
2018-05-04T13:42:20.363Z,6.73
2018-05-04T13:44:48.674Z,7.10
2018-05-04T13:47:16.993Z,7.10
2018-05-04T13:49:45.356Z,6.60
2018-05-04T13:52:13.695Z,6.70
2018-05-04T13:54:41.980Z,8.20
2018-05-04T13:57:10.249Z,6.50
2018-05-04T13:59:38.522Z,6.57
2018-05-04T14:02:06.798Z,6.63
2018-05-04T14:04:35.128Z,5.80
2018-05-04T14:07:03.436Z,5.90
2018-05-04T14:09:31.765Z,5.50
2018-05-04T14:12:00.110Z,7.00
2018-05-04T14:14:28.890Z,7.30
2018-05-04T14:16:57.166Z,6.17
2018-05-04T14:19:25.438Z,6.67
2018-05-04T14:21:53.734Z,5.70
2018-05-04T14:24:22.079Z,6.80
2018-05-04T14:26:50.737Z,5.60
2018-05-04T14:29:19.045Z,5.93
2018-05-04T14:31:47.389Z,6.07
2018-05-04T14:34:15.704Z,5.87
2018-05-04T14:36:44.005Z,6.17
2018-05-04T14:39:12.351Z,5.77
2018-05-04T14:41:41.217Z,5.50
2018-05-04T14:44:09.491Z,7.80
2018-05-04T14:46:37.763Z,5.93
2018-05-04T14:49:06.051Z,4.77
2018-05-04T14:51:34.334Z,5.03
2018-05-04T14:54:02.628Z,5.53
2018-05-04T14:56:30.916Z,5.90
2018-05-04T14:58:59.242Z,5.37
2018-05-04T15:01:27.533Z,6.03
2018-05-04T15:03:55.879Z,6.03
2018-05-04T15:06:24.176Z,5.30
2018-05-04T15:08:52.466Z,5.60
2018-05-04T15:11:20.761Z,5.40
2018-05-04T15:13:49.059Z,5.50
2018-05-04T15:16:17.389Z,5.80
2018-05-04T15:18:46.436Z,6.30
2018-05-04T15:21:14.849Z,5.90
2018-05-04T15:23:43.157Z,5.33
2018-05-04T15:26:11.434Z,5.57
2018-05-04T15:28:39.771Z,5.03
2018-05-04T15:31:08.045Z,5.00
2018-05-04T15:33:36.322Z,5.90
2018-05-04T15:36:04.612Z,5.33
2018-05-04T15:38:32.898Z,5.20
2018-05-04T15:41:01.199Z,5.10
2018-05-04T15:43:29.470Z,5.40
2018-05-04T15:45:57.849Z,5.63
2018-05-04T15:51:39.128Z,5.70
2018-05-04T15:54:07.447Z,5.10
2018-05-04T15:56:36.456Z,4.87
2018-05-04T15:59:04.741Z,5.67
2018-05-04T16:01:33.960Z,5.27
2018-05-04T16:04:02.247Z,5.90
2018-05-04T16:06:30.530Z,6.20
2018-05-04T16:08:58.825Z,4.63
2018-05-04T16:11:27.272Z,5.20
2018-05-04T16:13:55.546Z,4.70
2018-05-04T16:16:23.927Z,4.40
2018-05-04T16:18:52.158Z,4.80
2018-05-04T16:21:20.555Z,4.60
2018-05-04T16:23:48.836Z,5.10
2018-05-04T16:26:17.129Z,5.10
2018-05-04T16:28:45.636Z,4.63
2018-05-04T16:31:13.876Z,5.50
2018-05-04T16:33:42.227Z,4.37
2018-05-04T16:36:10.529Z,3.73
2018-05-04T16:38:38.863Z,3.97
2018-05-04T16:41:07.111Z,3.63
2018-05-04T16:43:35.401Z,4.33
2018-05-04T16:46:03.700Z,3.90
2018-05-04T16:48:37.724Z,4.20
2018-05-04T16:51:06.088Z,3.97
2018-05-04T16:53:34.529Z,4.07
2018-05-04T16:56:02.847Z,4.13
2018-05-04T16:58:31.117Z,3.83
2018-05-04T17:00:59.395Z,3.97
2018-05-04T17:03:27.687Z,3.80
2018-05-04T17:05:55.941Z,3.33
2018-05-04T17:08:24.226Z,5.10
2018-05-04T17:10:53.339Z,4.00
2018-05-04T17:13:21.794Z,3.20
2018-05-04T17:15:50.116Z,3.93
2018-05-04T17:18:18.366Z,3.60
2018-05-04T17:20:46.678Z,3.10
2018-05-04T17:23:14.970Z,3.90
2018-05-04T17:25:43.295Z,4.30
2018-05-04T17:28:11.619Z,3.37
2018-05-04T17:30:40.212Z,3.57
2018-05-04T17:33:08.481Z,4.23
2018-05-04T17:35:36.767Z,4.57
2018-05-04T17:38:05.666Z,4.83
2018-05-04T17:40:34.145Z,3.87
2018-05-04T17:43:02.328Z,3.00
2018-05-04T17:45:30.598Z,3.63
2018-05-04T17:47:58.872Z,3.30
2018-05-04T17:50:27.182Z,3.50
2018-05-04T17:52:55.448Z,3.27
2018-05-04T17:55:23.824Z,3.60
2018-05-04T17:57:52.983Z,3.07
2018-05-04T18:00:21.310Z,3.50
2018-05-04T18:02:49.640Z,3.77
2018-05-04T18:05:17.902Z,3.37
2018-05-04T18:07:46.175Z,3.10
2018-05-04T18:10:14.585Z,3.60
2018-05-04T18:12:42.798Z,3.10
2018-05-04T18:15:11.680Z,3.70
2018-05-04T18:17:40.003Z,3.47
2018-05-04T18:20:08.273Z,3.73
2018-05-04T18:22:36.539Z,4.07
2018-05-04T18:25:04.851Z,3.60
2018-05-04T18:27:33.325Z,3.27
2018-05-04T18:30:01.838Z,3.27
2018-05-04T18:32:30.114Z,3.37
2018-05-04T18:34:58.382Z,4.00
2018-05-04T18:37:26.853Z,3.80
2018-05-04T18:39:55.887Z,3.30
2018-05-04T18:42:24.228Z,3.27
2018-05-04T18:44:52.518Z,3.17
2018-05-04T18:47:20.838Z,3.47
2018-05-04T18:49:49.118Z,3.27
2018-05-04T18:52:17.396Z,3.20
2018-05-04T18:54:45.692Z,3.70
2018-05-04T18:57:13.933Z,3.17
2018-05-04T18:59:42.226Z,3.40
2018-05-04T19:02:10.567Z,3.33
2018-05-04T19:04:38.945Z,3.00
2018-05-04T19:07:07.262Z,3.50
2018-05-04T19:09:35.617Z,3.43
2018-05-04T19:12:03.990Z,4.33
2018-05-04T19:14:32.275Z,3.30
2018-05-04T19:17:00.561Z,3.90
2018-05-04T19:19:28.881Z,4.13
2018-05-04T19:21:57.216Z,4.60
2018-05-04T19:24:25.814Z,4.10
2018-05-04T19:26:54.140Z,4.30
2018-05-04T19:29:22.432Z,3.50
2018-05-04T19:31:50.696Z,3.43
2018-05-04T19:34:19.485Z,4.13
2018-05-04T19:36:47.767Z,3.70
2018-05-04T19:39:16.054Z,3.43
2018-05-04T19:41:44.338Z,3.50
2018-05-04T19:44:12.633Z,3.40
2018-05-04T19:46:40.883Z,3.60
2018-05-04T19:49:09.248Z,3.87
2018-05-04T19:51:37.591Z,3.83
2018-05-04T19:54:06.334Z,3.57
2018-05-04T19:56:34.623Z,3.60
2018-05-04T19:59:02.965Z,5.03
2018-05-04T20:01:31.350Z,4.50
2018-05-04T20:03:59.930Z,4.37
2018-05-04T20:06:28.630Z,3.70
2018-05-04T20:08:56.945Z,3.50
2018-05-04T20:11:25.201Z,3.77
2018-05-04T20:13:54.239Z,3.63
2018-05-04T20:16:22.591Z,4.43
2018-05-04T20:18:51.520Z,4.30
2018-05-04T20:21:19.791Z,3.60
2018-05-04T20:23:48.606Z,4.10
2018-05-04T20:26:16.926Z,4.07
2018-05-04T20:28:45.242Z,3.90
2018-05-04T20:31:13.539Z,4.07
2018-05-04T20:33:41.809Z,4.10
2018-05-04T20:36:10.134Z,3.70
2018-05-04T20:38:38.430Z,3.80
2018-05-04T20:41:06.714Z,4.43
2018-05-04T20:43:35.080Z,4.50
2018-05-04T20:46:03.423Z,3.63
2018-05-04T20:48:31.691Z,3.63
2018-05-04T20:50:59.987Z,4.73
2018-05-04T20:53:28.350Z,5.50
2018-05-04T20:55:57.850Z,5.63
2018-05-04T20:58:27.088Z,5.30
2018-05-04T21:00:55.571Z,4.47
2018-05-04T21:03:23.841Z,4.63
2018-05-04T21:05:52.109Z,4.23
2018-05-04T21:08:20.439Z,3.97
2018-05-04T21:10:49.318Z,4.43
2018-05-04T21:13:17.731Z,4.53
2018-05-04T21:15:46.020Z,4.20
2018-05-04T21:18:14.297Z,4.77
2018-05-04T21:20:42.578Z,4.43
2018-05-04T21:23:10.887Z,4.33
2018-05-04T21:25:39.157Z,4.40
2018-05-04T21:28:07.471Z,4.17
2018-05-04T21:30:35.768Z,4.80
2018-05-04T21:33:04.230Z,4.50
2018-05-04T21:35:32.591Z,4.60
2018-05-04T21:38:00.940Z,5.30
2018-05-04T21:40:29.259Z,4.77
2018-05-04T21:42:58.427Z,5.17
2018-05-04T21:45:26.731Z,5.30
2018-05-04T21:47:54.994Z,5.00
2018-05-04T21:50:23.305Z,5.60
2018-05-04T21:52:51.639Z,4.67
2018-05-04T21:55:19.949Z,5.13
2018-05-04T21:57:48.222Z,4.40
2018-05-04T22:00:17.414Z,4.50
2018-05-04T22:02:45.677Z,5.03
2018-05-04T22:05:14.560Z,4.70
2018-05-04T22:07:42.899Z,4.77
2018-05-04T22:10:12.981Z,4.37
2018-05-04T22:12:42.117Z,4.57
2018-05-04T22:15:11.142Z,4.33
2018-05-04T22:17:39.403Z,4.70
2018-05-04T22:20:07.758Z,4.30
2018-05-04T22:22:36.071Z,4.40
2018-05-04T22:25:04.374Z,4.80
2018-05-04T22:27:32.627Z,4.67
2018-05-04T22:30:00.916Z,4.77
2018-05-04T22:32:29.222Z,5.03
2018-05-04T22:34:58.393Z,4.63
2018-05-04T22:37:26.666Z,5.03
2018-05-04T22:39:58.570Z,4.43
2018-05-04T22:42:26.895Z,5.40
2018-05-04T22:44:56.036Z,4.43
2018-05-04T22:47:24.349Z,4.67
2018-05-04T22:49:52.577Z,4.47
2018-05-04T22:52:20.963Z,4.63
2018-05-04T22:54:49.233Z,4.40
2018-05-04T22:57:17.517Z,4.53
2018-05-04T22:59:46.284Z,4.20
2018-05-04T23:02:14.607Z,4.80
2018-05-04T23:04:42.928Z,4.53
2018-05-04T23:07:11.424Z,4.93
2018-05-04T23:09:39.720Z,4.10
2018-05-04T23:12:07.997Z,4.93
2018-05-04T23:14:36.325Z,4.57
2018-05-04T23:17:04.950Z,4.50
2018-05-04T23:19:33.210Z,4.10
2018-05-04T23:22:01.612Z,4.77
2018-05-04T23:24:29.964Z,4.70
2018-05-04T23:26:58.239Z,4.80
2018-05-04T23:29:26.708Z,4.80
2018-05-04T23:31:55.003Z,4.87
2018-05-04T23:34:23.385Z,4.63
2018-05-04T23:36:51.621Z,4.57
2018-05-04T23:39:19.922Z,4.87
2018-05-04T23:41:48.204Z,6.53
2018-05-04T23:44:16.486Z,4.53
2018-05-04T23:46:44.783Z,4.53
2018-05-04T23:49:13.125Z,4.97
2018-05-04T23:51:41.512Z,4.53
2018-05-04T23:54:09.822Z,5.17
2018-05-04T23:56:38.125Z,5.30
2018-05-04T23:59:06.473Z,4.67
